sensor_id;sensor_type;location;lat;lon;timestamp;pressure;altitude;pressure_sealevel;temperature;humidity
32237;BME280;18726;44.732;10.550;2023-02-02T00:02:38;101508.38;;;5.14;100.00
32237;BME280;18726;44.732;10.550;2023-02-02T03:15:52;101573.28;;;1.46;100.00
32237;BME280;18726;44.732;10.550;2023-02-02T03:18:55;101572.91;;;1.07;100.00
32237;BME280;18726;44.732;10.550;2023-02-02T03:21:59;101577.19;;;1.08;100.00
32237;BME280;18726;44.732;10.550;2023-02-02T03:25:04;101569.81;;;1.46;100.00
32237;BME280;18726;44.732;10.550;2023-02-02T03:28:08;101574.22;;;2.23;100.00
32237;BME280;18726;44.732;10.550;2023-02-02T03:31:12;101563.88;;;3.11;100.00
32237;BME280;18726;44.732;10.550;2023-02-02T03:34:16;101569.63;;;3.44;100.00
32237;BME280;18726;44.732;10.550;2023-02-02T03:37:19;101561.84;;;2.62;100.00
32237;BME280;18726;44.732;10.550;2023-02-02T03:40:23;101559.19;;;2.52;100.00
32237;BME280;18726;44.732;10.550;2023-02-02T03:43:27;101582.25;;;2.48;100.00
32237;BME280;18726;44.732;10.550;2023-02-02T03:46:30;101588.22;;;3.25;100.00
32237;BME280;18726;44.732;10.550;2023-02-02T03:49:33;101582.25;;;4.55;100.00
32237;BME280;18726;44.732;10.550;2023-02-02T03:52:37;101583.09;;;3.83;100.00
32237;BME280;18726;44.732;10.550;2023-02-02T03:55:41;101585.34;;;3.11;100.00
32237;BME280;18726;44.732;10.550;2023-02-02T03:58:45;101583.00;;;3.49;100.00
32237;BME280;18726;44.732;10.550;2023-02-02T04:01:49;101602.59;;;3.49;100.00
32237;BME280;18726;44.732;10.550;2023-02-02T04:04:55;101594.94;;;4.50;100.00
32237;BME280;18726;44.732;10.550;2023-02-02T04:07:59;101584.63;;;3.94;100.00
32237;BME280;18726;44.732;10.550;2023-02-02T04:11:03;101587.47;;;4.07;100.00
32237;BME280;18726;44.732;10.550;2023-02-02T04:14:06;101594.59;;;3.88;100.00
32237;BME280;18726;44.732;10.550;2023-02-02T04:17:10;101598.13;;;3.84;100.00
32237;BME280;18726;44.732;10.550;2023-02-02T04:20:13;101594.19;;;3.71;100.00
32237;BME280;18726;44.732;10.550;2023-02-02T04:23:17;101588.97;;;3.85;100.00
32237;BME280;18726;44.732;10.550;2023-02-02T04:26:20;101587.00;;;4.00;100.00
32237;BME280;18726;44.732;10.550;2023-02-02T04:29:24;101595.25;;;3.16;100.00
32237;BME280;18726;44.732;10.550;2023-02-02T04:32:28;101598.31;;;2.68;100.00
32237;BME280;18726;44.732;10.550;2023-02-02T04:35:32;101599.44;;;3.91;100.00
32237;BME280;18726;44.732;10.550;2023-02-02T04:38:36;101598.44;;;3.77;100.00
32237;BME280;18726;44.732;10.550;2023-02-02T04:41:39;101610.13;;;2.42;100.00
32237;BME280;18726;44.732;10.550;2023-02-02T04:44:43;101618.84;;;1.56;100.00
32237;BME280;18726;44.732;10.550;2023-02-02T04:47:47;101618.81;;;0.94;100.00
32237;BME280;18726;44.732;10.550;2023-02-02T04:51:00;101619.66;;;0.99;100.00
32237;BME280;18726;44.732;10.550;2023-02-02T04:54:05;101624.94;;;1.37;100.00
32237;BME280;18726;44.732;10.550;2023-02-02T04:57:09;101613.88;;;2.21;100.00
32237;BME280;18726;44.732;10.550;2023-02-02T05:00:13;101605.09;;;3.35;100.00
32237;BME280;18726;44.732;10.550;2023-02-02T05:03:17;101605.78;;;2.92;100.00
32237;BME280;18726;44.732;10.550;2023-02-02T05:06:21;101598.91;;;2.30;100.00
32237;BME280;18726;44.732;10.550;2023-02-02T05:09:24;101598.88;;;2.45;100.00
32237;BME280;18726;44.732;10.550;2023-02-02T05:12:28;101605.16;;;3.20;100.00
32237;BME280;18726;44.732;10.550;2023-02-02T05:15:32;101604.84;;;3.81;100.00
32237;BME280;18726;44.732;10.550;2023-02-02T05:18:35;101602.47;;;3.20;100.00
32237;BME280;18726;44.732;10.550;2023-02-02T05:21:39;101600.44;;;2.77;100.00
32237;BME280;18726;44.732;10.550;2023-02-02T05:24:43;101602.31;;;2.81;100.00
32237;BME280;18726;44.732;10.550;2023-02-02T05:27:46;101594.59;;;2.59;100.00
32237;BME280;18726;44.732;10.550;2023-02-02T05:30:50;101601.56;;;2.40;100.00
32237;BME280;18726;44.732;10.550;2023-02-02T05:33:54;101605.31;;;2.29;100.00
32237;BME280;18726;44.732;10.550;2023-02-02T05:36:57;101601.56;;;2.20;100.00
32237;BME280;18726;44.732;10.550;2023-02-02T05:40:01;101606.09;;;2.34;100.00
32237;BME280;18726;44.732;10.550;2023-02-02T05:43:05;101608.53;;;2.21;100.00
32237;BME280;18726;44.732;10.550;2023-02-02T05:46:08;101605.56;;;2.12;100.00
32237;BME280;18726;44.732;10.550;2023-02-02T05:49:13;101605.84;;;2.16;100.00
32237;BME280;18726;44.732;10.550;2023-02-02T05:52:18;101601.81;;;2.33;100.00
32237;BME280;18726;44.732;10.550;2023-02-02T05:55:23;101603.66;;;2.74;100.00
32237;BME280;18726;44.732;10.550;2023-02-02T05:58:26;101612.28;;;2.50;100.00
32237;BME280;18726;44.732;10.550;2023-02-02T06:01:31;101604.47;;;2.74;100.00
32237;BME280;18726;44.732;10.550;2023-02-02T06:53:15;101657.84;;;2.35;100.00
32237;BME280;18726;44.732;10.550;2023-02-02T06:56:25;101667.47;;;2.92;100.00
32237;BME280;18726;44.732;10.550;2023-02-02T06:59:28;101669.34;;;3.81;100.00
32237;BME280;18726;44.732;10.550;2023-02-02T07:02:31;101681.06;;;4.79;100.00
32237;BME280;18726;44.732;10.550;2023-02-02T07:05:35;101702.22;;;5.67;100.00
32237;BME280;18726;44.732;10.550;2023-02-02T07:08:39;101705.22;;;6.08;100.00
32237;BME280;18726;44.732;10.550;2023-02-02T07:11:43;101715.06;;;5.99;100.00
32237;BME280;18726;44.732;10.550;2023-02-02T07:14:46;101721.84;;;6.15;100.00
32237;BME280;18726;44.732;10.550;2023-02-02T07:17:49;101716.81;;;6.46;100.00
32237;BME280;18726;44.732;10.550;2023-02-02T07:20:53;101713.25;;;7.29;100.00
32237;BME280;18726;44.732;10.550;2023-02-02T07:23:56;101707.41;;;8.76;100.00
32237;BME280;18726;44.732;10.550;2023-02-02T07:26:59;101687.09;;;9.67;97.53
32237;BME280;18726;44.732;10.550;2023-02-02T07:30:03;101706.69;;;10.21;93.43
32237;BME280;18726;44.732;10.550;2023-02-02T07:33:07;101709.88;;;10.40;85.48
32237;BME280;18726;44.732;10.550;2023-02-02T07:36:12;101711.88;;;11.03;83.01
32237;BME280;18726;44.732;10.550;2023-02-02T07:39:18;101699.34;;;11.96;79.86
32237;BME280;18726;44.732;10.550;2023-02-02T07:42:21;101695.06;;;12.69;73.12
32237;BME280;18726;44.732;10.550;2023-02-02T07:45:25;101693.88;;;13.48;73.51
32237;BME280;18726;44.732;10.550;2023-02-02T07:48:29;101696.38;;;14.18;67.10
32237;BME280;18726;44.732;10.550;2023-02-02T07:51:33;101701.75;;;14.55;68.10
32237;BME280;18726;44.732;10.550;2023-02-02T07:54:37;101704.34;;;14.63;63.94
32237;BME280;18726;44.732;10.550;2023-02-02T07:57:41;101706.56;;;15.17;61.08
32237;BME280;18726;44.732;10.550;2023-02-02T08:00:44;101699.50;;;15.47;58.66
32237;BME280;18726;44.732;10.550;2023-02-02T08:03:49;101707.09;;;16.40;60.32
32237;BME280;18726;44.732;10.550;2023-02-02T08:06:53;101696.09;;;16.78;56.16
32237;BME280;18726;44.732;10.550;2023-02-02T08:09:57;101698.44;;;17.45;55.13
32237;BME280;18726;44.732;10.550;2023-02-02T08:13:00;101699.53;;;17.40;52.63
32237;BME280;18726;44.732;10.550;2023-02-02T08:16:05;101709.66;;;16.91;55.38
32237;BME280;18726;44.732;10.550;2023-02-02T08:19:09;101714.25;;;17.51;57.57
32237;BME280;18726;44.732;10.550;2023-02-02T08:22:13;101704.84;;;19.06;52.95
32237;BME280;18726;44.732;10.550;2023-02-02T08:25:17;101719.09;;;20.17;49.35
32237;BME280;18726;44.732;10.550;2023-02-02T08:28:21;101722.59;;;21.65;45.83
32237;BME280;18726;44.732;10.550;2023-02-02T08:31:30;101732.25;;;25.05;35.63
32237;BME280;18726;44.732;10.550;2023-02-02T08:34:34;101743.34;;;24.78;38.43
32237;BME280;18726;44.732;10.550;2023-02-02T08:37:39;101745.34;;;22.44;38.50
32237;BME280;18726;44.732;10.550;2023-02-02T08:40:43;101756.53;;;22.15;37.36
32237;BME280;18726;44.732;10.550;2023-02-02T08:43:47;101746.56;;;23.16;36.54
32237;BME280;18726;44.732;10.550;2023-02-02T08:46:51;101741.41;;;23.18;35.34
32237;BME280;18726;44.732;10.550;2023-02-02T08:49:55;101755.16;;;23.32;36.89
32237;BME280;18726;44.732;10.550;2023-02-02T08:52:59;101748.84;;;23.28;37.08
32237;BME280;18726;44.732;10.550;2023-02-02T08:56:10;101741.72;;;25.81;36.82
32237;BME280;18726;44.732;10.550;2023-02-02T08:59:13;101739.59;;;28.14;37.42
32237;BME280;18726;44.732;10.550;2023-02-02T09:02:16;101737.03;;;29.25;36.40
32237;BME280;18726;44.732;10.550;2023-02-02T09:05:20;101747.66;;;29.55;28.47
32237;BME280;18726;44.732;10.550;2023-02-02T09:08:24;101752.03;;;28.80;31.09
32237;BME280;18726;44.732;10.550;2023-02-02T09:11:28;101757.91;;;28.15;30.49
32237;BME280;18726;44.732;10.550;2023-02-02T09:14:32;101748.81;;;25.39;33.36
32237;BME280;18726;44.732;10.550;2023-02-02T09:17:35;101749.03;;;23.07;36.70
32237;BME280;18726;44.732;10.550;2023-02-02T09:20:39;101747.84;;;24.69;34.83
32237;BME280;18726;44.732;10.550;2023-02-02T09:23:45;101754.72;;;27.07;31.52
32237;BME280;18726;44.732;10.550;2023-02-02T09:26:49;101761.50;;;28.45;31.67
32237;BME280;18726;44.732;10.550;2023-02-02T09:29:52;101765.50;;;25.86;32.82
32237;BME280;18726;44.732;10.550;2023-02-02T09:32:56;101771.41;;;26.71;31.77
32237;BME280;18726;44.732;10.550;2023-02-02T09:36:16;101765.78;;;24.91;33.83
32237;BME280;18726;44.732;10.550;2023-02-02T09:39:20;101763.25;;;23.09;36.42
32237;BME280;18726;44.732;10.550;2023-02-02T09:49:48;101790.13;;;20.35;41.07
32237;BME280;18726;44.732;10.550;2023-02-02T09:56:16;101785.28;;;19.22;44.89
32237;BME280;18726;44.732;10.550;2023-02-02T09:59:25;101796.41;;;22.36;39.56
32237;BME280;18726;44.732;10.550;2023-02-02T10:02:35;101793.53;;;23.93;36.36
32237;BME280;18726;44.732;10.550;2023-02-02T10:05:50;101792.34;;;26.19;36.00
32237;BME280;18726;44.732;10.550;2023-02-02T10:12:43;101801.78;;;25.55;30.94
32237;BME280;18726;44.732;10.550;2023-02-02T10:16:05;101804.00;;;30.70;29.21
32237;BME280;18726;44.732;10.550;2023-02-02T10:19:13;101798.19;;;33.42;26.59
32237;BME280;18726;44.732;10.550;2023-02-02T10:22:22;101802.56;;;34.30;22.38
32237;BME280;18726;44.732;10.550;2023-02-02T10:25:29;101813.44;;;34.96;21.02
32237;BME280;18726;44.732;10.550;2023-02-02T10:42:41;101755.50;;;26.51;29.26
32237;BME280;18726;44.732;10.550;2023-02-02T10:46:12;101750.94;;;25.05;31.16
32237;BME280;18726;44.732;10.550;2023-02-02T10:49:34;101736.41;;;22.95;33.70
32237;BME280;18726;44.732;10.550;2023-02-02T10:52:43;101725.78;;;21.64;37.01
32237;BME280;18726;44.732;10.550;2023-02-02T10:55:58;101719.84;;;21.44;38.94
32237;BME280;18726;44.732;10.550;2023-02-02T10:59:10;101708.34;;;21.92;37.63
32237;BME280;18726;44.732;10.550;2023-02-02T11:02:17;101704.00;;;21.66;37.75
32237;BME280;18726;44.732;10.550;2023-02-02T11:05:23;101698.44;;;22.01;39.75
32237;BME280;18726;44.732;10.550;2023-02-02T11:08:48;101712.66;;;21.96;39.75
32237;BME280;18726;44.732;10.550;2023-02-02T11:12:20;101699.31;;;22.75;37.51
32237;BME280;18726;44.732;10.550;2023-02-02T11:15:28;101699.94;;;23.55;39.91
32237;BME280;18726;44.732;10.550;2023-02-02T11:18:31;101700.13;;;23.75;39.24
32237;BME280;18726;44.732;10.550;2023-02-02T11:21:37;101701.44;;;24.35;36.02
32237;BME280;18726;44.732;10.550;2023-02-02T11:24:46;101695.56;;;24.30;41.56
32237;BME280;18726;44.732;10.550;2023-02-02T11:27:51;101694.56;;;24.47;37.81
32237;BME280;18726;44.732;10.550;2023-02-02T11:30:56;101688.66;;;24.07;39.94
32237;BME280;18726;44.732;10.550;2023-02-02T11:34:26;101688.84;;;23.48;32.75
32237;BME280;18726;44.732;10.550;2023-02-02T11:37:32;101679.53;;;23.28;37.66
32237;BME280;18726;44.732;10.550;2023-02-02T11:40:41;101668.06;;;23.26;35.05
32237;BME280;18726;44.732;10.550;2023-02-02T11:43:49;101660.13;;;23.28;36.50
32237;BME280;18726;44.732;10.550;2023-02-02T11:46:54;101646.66;;;23.30;41.79
32237;BME280;18726;44.732;10.550;2023-02-02T11:50:00;101649.84;;;23.25;40.18
32237;BME280;18726;44.732;10.550;2023-02-02T11:53:04;101638.78;;;23.25;36.75
32237;BME280;18726;44.732;10.550;2023-02-02T11:56:20;101631.28;;;22.67;34.56
32237;BME280;18726;44.732;10.550;2023-02-02T11:59:40;101625.75;;;22.63;37.17
32237;BME280;18726;44.732;10.550;2023-02-02T12:02:45;101613.63;;;22.43;35.45
32237;BME280;18726;44.732;10.550;2023-02-02T12:05:50;101602.31;;;22.19;38.72
32237;BME280;18726;44.732;10.550;2023-02-02T12:09:06;101600.81;;;22.01;35.22
32237;BME280;18726;44.732;10.550;2023-02-02T12:12:42;101597.38;;;21.65;37.82
32237;BME280;18726;44.732;10.550;2023-02-02T12:16:05;101587.16;;;21.40;43.90
32237;BME280;18726;44.732;10.550;2023-02-02T12:22:46;101582.84;;;21.21;35.74
32237;BME280;18726;44.732;10.550;2023-02-02T12:29:33;101573.38;;;20.98;45.17
32237;BME280;18726;44.732;10.550;2023-02-02T12:40:02;101552.03;;;21.09;38.25
32237;BME280;18726;44.732;10.550;2023-02-02T12:43:26;101551.28;;;21.05;40.61
32237;BME280;18726;44.732;10.550;2023-02-02T12:50:06;101544.19;;;20.79;42.34
32237;BME280;18726;44.732;10.550;2023-02-02T13:04:05;101533.84;;;20.22;33.86
32237;BME280;18726;44.732;10.550;2023-02-02T13:07:40;101536.94;;;19.89;33.61
32237;BME280;18726;44.732;10.550;2023-02-02T13:10:48;101529.81;;;19.84;36.97
32237;BME280;18726;44.732;10.550;2023-02-02T13:14:04;101534.13;;;19.78;36.36
32237;BME280;18726;44.732;10.550;2023-02-02T13:17:18;101524.09;;;19.45;34.97
32237;BME280;18726;44.732;10.550;2023-02-02T13:23:43;101534.16;;;19.13;35.93
32237;BME280;18726;44.732;10.550;2023-02-02T13:26:48;101533.31;;;19.02;33.66
32237;BME280;18726;44.732;10.550;2023-02-02T13:29:57;101529.25;;;18.88;33.39
32237;BME280;18726;44.732;10.550;2023-02-02T13:33:12;101529.97;;;18.78;35.44
32237;BME280;18726;44.732;10.550;2023-02-02T13:36:22;101524.09;;;18.76;36.10
32237;BME280;18726;44.732;10.550;2023-02-02T13:39:58;101532.31;;;18.73;36.54
32237;BME280;18726;44.732;10.550;2023-02-02T13:49:33;101523.47;;;18.56;35.39
32237;BME280;18726;44.732;10.550;2023-02-02T14:03:01;101521.53;;;18.16;36.05
32237;BME280;18726;44.732;10.550;2023-02-02T14:06:13;101533.22;;;18.06;37.08
32237;BME280;18726;44.732;10.550;2023-02-02T14:09:18;101531.63;;;18.05;38.66
32237;BME280;18726;44.732;10.550;2023-02-02T14:12:30;101536.34;;;18.05;39.51
32237;BME280;18726;44.732;10.550;2023-02-02T14:15:40;101532.72;;;17.97;37.20
32237;BME280;18726;44.732;10.550;2023-02-02T14:28:44;101510.53;;;17.49;37.96
32237;BME280;18726;44.732;10.550;2023-02-02T14:31:57;101512.75;;;17.40;39.18
32237;BME280;18726;44.732;10.550;2023-02-02T14:38:21;101506.78;;;17.35;42.55
32237;BME280;18726;44.732;10.550;2023-02-02T14:41:38;101508.63;;;17.24;39.12
32237;BME280;18726;44.732;10.550;2023-02-02T14:48:21;101490.53;;;16.93;38.50
32237;BME280;18726;44.732;10.550;2023-02-02T14:51:28;101491.63;;;16.88;40.01
32237;BME280;18726;44.732;10.550;2023-02-02T14:54:36;101492.28;;;16.81;41.24
32237;BME280;18726;44.732;10.550;2023-02-02T14:57:41;101493.75;;;16.75;41.93
32237;BME280;18726;44.732;10.550;2023-02-02T15:01:04;101499.59;;;16.70;41.32
32237;BME280;18726;44.732;10.550;2023-02-02T15:11:02;101503.81;;;16.64;50.72
32237;BME280;18726;44.732;10.550;2023-02-02T15:18:16;101502.56;;;16.39;43.94
32237;BME280;18726;44.732;10.550;2023-02-02T15:21:25;101493.91;;;16.37;56.90
32237;BME280;18726;44.732;10.550;2023-02-02T15:24:30;101497.69;;;16.29;51.76
32237;BME280;18726;44.732;10.550;2023-02-02T15:27:38;101508.06;;;16.19;49.58
32237;BME280;18726;44.732;10.550;2023-02-02T15:30:51;101517.88;;;16.20;61.35
32237;BME280;18726;44.732;10.550;2023-02-02T15:34:23;101523.44;;;16.24;63.70
32237;BME280;18726;44.732;10.550;2023-02-02T15:37:35;101545.03;;;16.06;53.09
32237;BME280;18726;44.732;10.550;2023-02-02T15:40:44;101555.00;;;15.95;59.09
32237;BME280;18726;44.732;10.550;2023-02-02T15:43:47;101559.34;;;15.77;56.05
32237;BME280;18726;44.732;10.550;2023-02-02T15:46:52;101555.06;;;15.60;56.64
32237;BME280;18726;44.732;10.550;2023-02-02T15:49:56;101559.84;;;15.47;59.55
32237;BME280;18726;44.732;10.550;2023-02-02T15:53:02;101558.22;;;15.27;58.41
32237;BME280;18726;44.732;10.550;2023-02-02T15:59:37;101545.47;;;15.00;66.62
32237;BME280;18726;44.732;10.550;2023-02-02T16:02:41;101549.34;;;14.83;66.78
32237;BME280;18726;44.732;10.550;2023-02-02T16:05:54;101546.81;;;14.90;78.10
32237;BME280;18726;44.732;10.550;2023-02-02T16:09:01;101568.34;;;14.92;77.53
32237;BME280;18726;44.732;10.550;2023-02-02T16:12:05;101560.84;;;14.89;85.19
32237;BME280;18726;44.732;10.550;2023-02-02T16:15:26;101563.56;;;14.89;88.41
32237;BME280;18726;44.732;10.550;2023-02-02T16:18:31;101560.84;;;14.89;89.79
32237;BME280;18726;44.732;10.550;2023-02-02T16:21:42;101573.81;;;14.92;90.31
32237;BME280;18726;44.732;10.550;2023-02-02T16:24:49;101572.03;;;14.83;88.62
32237;BME280;18726;44.732;10.550;2023-02-02T16:27:54;101571.25;;;14.67;75.33
32237;BME280;18726;44.732;10.550;2023-02-02T16:30:59;101569.09;;;14.45;75.12
32237;BME280;18726;44.732;10.550;2023-02-02T16:34:03;101578.97;;;14.22;70.37
32237;BME280;18726;44.732;10.550;2023-02-02T16:40:27;101582.13;;;13.80;67.17
32237;BME280;18726;44.732;10.550;2023-02-02T16:43:31;101576.00;;;13.59;67.22
32237;BME280;18726;44.732;10.550;2023-02-02T16:46:42;101582.19;;;13.43;71.06
32237;BME280;18726;44.732;10.550;2023-02-02T16:49:47;101595.41;;;13.17;69.40
32237;BME280;18726;44.732;10.550;2023-02-02T16:53:00;101598.31;;;13.12;64.13
32237;BME280;18726;44.732;10.550;2023-02-02T16:56:06;101600.59;;;13.10;73.94
32237;BME280;18726;44.732;10.550;2023-02-02T17:02:31;101611.38;;;12.94;75.02
32237;BME280;18726;44.732;10.550;2023-02-02T17:05:45;101620.53;;;12.77;69.52
32237;BME280;18726;44.732;10.550;2023-02-02T17:08:50;101622.34;;;12.73;79.56
32237;BME280;18726;44.732;10.550;2023-02-02T17:12:00;101621.09;;;12.71;87.41
32237;BME280;18726;44.732;10.550;2023-02-02T17:18:20;101618.56;;;12.54;81.18
32237;BME280;18726;44.732;10.550;2023-02-02T17:21:24;101622.47;;;12.32;73.56
32237;BME280;18726;44.732;10.550;2023-02-02T17:24:28;101623.06;;;12.16;81.04
32237;BME280;18726;44.732;10.550;2023-02-02T17:27:33;101619.44;;;12.12;78.80
32237;BME280;18726;44.732;10.550;2023-02-02T17:30:45;101619.66;;;12.07;73.60
32237;BME280;18726;44.732;10.550;2023-02-02T17:33:49;101624.50;;;12.02;72.78
32237;BME280;18726;44.732;10.550;2023-02-02T17:36:53;101630.66;;;11.90;77.83
32237;BME280;18726;44.732;10.550;2023-02-02T17:39:57;101625.28;;;11.81;78.84
32237;BME280;18726;44.732;10.550;2023-02-02T17:43:00;101628.09;;;11.64;73.64
32237;BME280;18726;44.732;10.550;2023-02-02T17:46:08;101635.97;;;11.57;74.62
32237;BME280;18726;44.732;10.550;2023-02-02T17:49:12;101635.31;;;11.60;85.08
32237;BME280;18726;44.732;10.550;2023-02-02T17:52:15;101639.13;;;11.68;100.00
32237;BME280;18726;44.732;10.550;2023-02-02T17:55:31;101644.84;;;11.75;100.00
32237;BME280;18726;44.732;10.550;2023-02-02T17:58:35;101645.59;;;11.84;100.00
32237;BME280;18726;44.732;10.550;2023-02-02T18:01:39;101653.09;;;11.58;82.70
32237;BME280;18726;44.732;10.550;2023-02-02T18:04:43;101654.69;;;11.29;81.60
32237;BME280;18726;44.732;10.550;2023-02-02T18:07:47;101653.94;;;11.20;96.74
32237;BME280;18726;44.732;10.550;2023-02-02T18:10:51;101657.72;;;11.28;100.00
32237;BME280;18726;44.732;10.550;2023-02-02T18:13:55;101683.41;;;11.09;89.64
32237;BME280;18726;44.732;10.550;2023-02-02T18:16:59;101677.06;;;10.88;84.53
32237;BME280;18726;44.732;10.550;2023-02-02T18:20:03;101683.16;;;10.16;82.83
32237;BME280;18726;44.732;10.550;2023-02-02T18:23:08;101675.41;;;9.49;87.12
32237;BME280;18726;44.732;10.550;2023-02-02T18:26:14;101668.34;;;9.39;86.08
32237;BME280;18726;44.732;10.550;2023-02-02T18:29:19;101672.69;;;9.58;91.89
32237;BME280;18726;44.732;10.550;2023-02-02T18:32:23;101676.59;;;9.74;96.71
32237;BME280;18726;44.732;10.550;2023-02-02T18:35:27;101682.50;;;9.93;100.00
32237;BME280;18726;44.732;10.550;2023-02-02T18:38:31;101682.97;;;9.78;88.37
32237;BME280;18726;44.732;10.550;2023-02-02T18:41:36;101684.16;;;9.55;88.99
32237;BME280;18726;44.732;10.550;2023-02-02T18:44:40;101680.34;;;9.56;100.00
32237;BME280;18726;44.732;10.550;2023-02-02T18:47:46;101683.50;;;9.40;82.21
32237;BME280;18726;44.732;10.550;2023-02-02T18:50:50;101686.72;;;9.42;95.86
32237;BME280;18726;44.732;10.550;2023-02-02T18:53:53;101696.94;;;9.45;91.05
32237;BME280;18726;44.732;10.550;2023-02-02T18:57:02;101695.19;;;9.58;100.00
32237;BME280;18726;44.732;10.550;2023-02-02T19:00:07;101698.47;;;9.38;77.55
32237;BME280;18726;44.732;10.550;2023-02-02T19:03:11;101697.47;;;9.25;76.57
32237;BME280;18726;44.732;10.550;2023-02-02T19:06:16;101699.22;;;9.21;77.91
32237;BME280;18726;44.732;10.550;2023-02-02T19:09:38;101687.28;;;9.31;82.96
32237;BME280;18726;44.732;10.550;2023-02-02T19:12:56;101688.88;;;9.32;80.70
32237;BME280;18726;44.732;10.550;2023-02-02T19:16:02;101688.56;;;9.33;74.38
32237;BME280;18726;44.732;10.550;2023-02-02T19:19:27;101687.94;;;9.36;84.57
32237;BME280;18726;44.732;10.550;2023-02-02T19:22:32;101691.16;;;9.38;87.75
32237;BME280;18726;44.732;10.550;2023-02-02T19:25:39;101685.00;;;9.24;83.24
32237;BME280;18726;44.732;10.550;2023-02-02T19:28:43;101685.66;;;9.21;80.19
32237;BME280;18726;44.732;10.550;2023-02-02T19:32:16;101688.41;;;8.99;69.56
32237;BME280;18726;44.732;10.550;2023-02-02T19:35:27;101685.56;;;9.04;78.26
32237;BME280;18726;44.732;10.550;2023-02-02T19:38:31;101684.50;;;9.13;85.37
32237;BME280;18726;44.732;10.550;2023-02-02T19:41:36;101688.78;;;9.06;79.10
32237;BME280;18726;44.732;10.550;2023-02-02T19:44:41;101697.22;;;9.04;79.10
32237;BME280;18726;44.732;10.550;2023-02-02T19:47:45;101697.56;;;9.11;88.46
32237;BME280;18726;44.732;10.550;2023-02-02T19:50:49;101694.91;;;9.20;86.29
32237;BME280;18726;44.732;10.550;2023-02-02T19:53:58;101700.16;;;9.25;86.60
32237;BME280;18726;44.732;10.550;2023-02-02T19:57:31;101700.34;;;9.20;79.20
32237;BME280;18726;44.732;10.550;2023-02-02T20:00:35;101707.91;;;9.40;100.00
32237;BME280;18726;44.732;10.550;2023-02-02T20:03:41;101706.66;;;9.55;100.00
32237;BME280;18726;44.732;10.550;2023-02-02T20:06:49;101717.38;;;9.52;95.50
32237;BME280;18726;44.732;10.550;2023-02-02T20:09:54;101714.31;;;9.53;100.00
32237;BME280;18726;44.732;10.550;2023-02-02T20:13:13;101716.31;;;9.70;100.00
32237;BME280;18726;44.732;10.550;2023-02-02T20:16:21;101720.72;;;10.05;100.00
32237;BME280;18726;44.732;10.550;2023-02-02T20:19:27;101734.72;;;9.90;100.00
32237;BME280;18726;44.732;10.550;2023-02-02T20:22:33;101737.53;;;9.68;93.23
32237;BME280;18726;44.732;10.550;2023-02-02T20:25:36;101740.50;;;9.49;86.95
32237;BME280;18726;44.732;10.550;2023-02-02T20:28:43;101747.59;;;9.36;89.68
32237;BME280;18726;44.732;10.550;2023-02-02T20:31:49;101756.66;;;9.23;91.43
32237;BME280;18726;44.732;10.550;2023-02-02T20:34:55;101753.50;;;9.07;91.68
32237;BME280;18726;44.732;10.550;2023-02-02T20:37:59;101762.81;;;8.93;87.37
32237;BME280;18726;44.732;10.550;2023-02-02T20:41:03;101786.06;;;8.71;80.37
32237;BME280;18726;44.732;10.550;2023-02-02T20:44:09;101796.28;;;8.52;76.39
32237;BME280;18726;44.732;10.550;2023-02-02T20:47:12;101797.41;;;8.37;79.78
32237;BME280;18726;44.732;10.550;2023-02-02T20:50:19;101786.75;;;8.41;100.00
32237;BME280;18726;44.732;10.550;2023-02-02T20:53:23;101794.44;;;8.61;100.00
32237;BME280;18726;44.732;10.550;2023-02-02T20:56:27;101797.91;;;8.75;100.00
32237;BME280;18726;44.732;10.550;2023-02-02T20:59:31;101786.50;;;9.32;100.00
32237;BME280;18726;44.732;10.550;2023-02-02T21:02:35;101787.25;;;9.55;100.00
32237;BME280;18726;44.732;10.550;2023-02-02T21:05:38;101799.69;;;9.25;100.00
32237;BME280;18726;44.732;10.550;2023-02-02T21:08:43;101815.38;;;8.69;100.00
32237;BME280;18726;44.732;10.550;2023-02-02T21:11:48;101820.25;;;7.90;91.83
32237;BME280;18726;44.732;10.550;2023-02-02T21:14:52;101815.53;;;7.22;89.25
32237;BME280;18726;44.732;10.550;2023-02-02T21:17:56;101817.19;;;6.86;94.80
32237;BME280;18726;44.732;10.550;2023-02-02T21:20:59;101828.00;;;6.86;92.27
32237;BME280;18726;44.732;10.550;2023-02-02T21:24:03;101835.13;;;7.14;86.67
32237;BME280;18726;44.732;10.550;2023-02-02T21:27:09;101847.94;;;7.22;87.13
32237;BME280;18726;44.732;10.550;2023-02-02T21:30:13;101841.28;;;6.82;86.98
32237;BME280;18726;44.732;10.550;2023-02-02T21:33:16;101843.59;;;6.51;86.81
32237;BME280;18726;44.732;10.550;2023-02-02T21:39:36;101847.19;;;6.23;93.06
32237;BME280;18726;44.732;10.550;2023-02-02T21:42:47;101855.69;;;6.35;93.92
32237;BME280;18726;44.732;10.550;2023-02-02T21:45:51;101854.56;;;6.60;100.00
32237;BME280;18726;44.732;10.550;2023-02-02T21:48:55;101849.41;;;6.63;100.00
32237;BME280;18726;44.732;10.550;2023-02-02T21:52:08;101866.22;;;6.55;100.00
32237;BME280;18726;44.732;10.550;2023-02-02T21:55:33;101865.53;;;6.44;100.00
32237;BME280;18726;44.732;10.550;2023-02-02T21:58:38;101873.19;;;6.37;100.00
32237;BME280;18726;44.732;10.550;2023-02-02T22:01:41;101872.22;;;6.28;100.00
32237;BME280;18726;44.732;10.550;2023-02-02T22:04:45;101872.81;;;6.01;100.00
32237;BME280;18726;44.732;10.550;2023-02-02T22:07:49;101876.03;;;6.03;100.00